Time;durP1;ratioP1;P1;durP2;ratioP2;P2;SDS_P1;SDS_P2;PMS_P1;PMS_P2;Temp;Humidity;BMP_temperature;BMP_pressure;BME280_temperature;BME280_humidity;BME280_pressure;Samples;Min_cycle;Max_cycle;Signal;HPM_P1;HPM_P2
2022/12/24 00:01:38;;;;;;;0.10;0.10;;;;;;;;;;5094080;28;20643;-70
2022/12/24 00:04:06;;;;;;;0.07;0.07;;;;;;;;;;5100859;28;20635;-69
2022/12/24 00:06:33;;;;;;;0.10;0.10;;;;;;;;;;5097446;28;20770;-70
2022/12/24 00:09:00;;;;;;;0.10;0.10;;;;;;;;;;5093230;28;21071;-70
2022/12/24 00:11:27;;;;;;;0.10;0.10;;;;;;;;;;5094286;28;21191;-70
2022/12/24 00:13:56;;;;;;;0.10;0.10;;;;;;;;;;5096608;28;20655;-69
2022/12/24 00:16:23;;;;;;;0.10;0.10;;;;;;;;;;5095786;28;21269;-70
2022/12/24 00:18:50;;;;;;;0.10;0.10;;;;;;;;;;5092423;28;20626;-69
2022/12/24 00:21:18;;;;;;;0.10;0.10;;;;;;;;;;5093302;28;20627;-69
2022/12/24 00:23:45;;;;;;;0.10;0.10;;;;;;;;;;5094619;28;20641;-70
2022/12/24 00:26:12;;;;;;;0.10;0.10;;;;;;;;;;5096269;28;21282;-69
2022/12/24 00:28:40;;;;;;;0.10;0.10;;;;;;;;;;5092522;28;20626;-69
2022/12/24 00:31:13;;;;;;;0.00;0.00;;;;;;;;;;5099173;27;20622;-70
2022/12/24 00:33:40;;;;;;;0.10;0.10;;;;;;;;;;5096973;28;20651;-70
2022/12/24 00:36:08;;;;;;;0.00;0.00;;;;;;;;;;5093561;28;20690;-69
2022/12/24 00:38:35;;;;;;;0.10;0.10;;;;;;;;;;5081310;28;20634;-70
2022/12/24 00:41:03;;;;;;;0.00;0.00;;;;;;;;;;5091824;28;20619;-71
2022/12/24 00:43:31;;;;;;;0.00;0.00;;;;;;;;;;5080883;28;20619;-70
2022/12/24 00:45:58;;;;;;;0.10;0.10;;;;;;;;;;5095564;28;20704;-70
2022/12/24 00:48:27;;;;;;;0.07;0.07;;;;;;;;;;5109050;27;20659;-70
2022/12/24 00:50:54;;;;;;;0.10;0.10;;;;;;;;;;5093562;28;20677;-70
2022/12/24 00:53:21;;;;;;;0.00;0.00;;;;;;;;;;5095892;28;20665;-70
2022/12/24 00:55:48;;;;;;;0.10;0.10;;;;;;;;;;5096212;28;20655;-69
2022/12/24 00:58:15;;;;;;;0.10;0.10;;;;;;;;;;5097802;28;20730;-69
2022/12/24 01:00:43;;;;;;;0.10;0.10;;;;;;;;;;5094057;28;20623;-70
2022/12/24 01:03:10;;;;;;;0.10;0.10;;;;;;;;;;5094411;28;20615;-70
2022/12/24 01:05:37;;;;;;;0.10;0.10;;;;;;;;;;5091916;28;20658;-70
2022/12/24 01:08:05;;;;;;;0.03;0.03;;;;;;;;;;5093367;28;20623;-70
2022/12/24 01:10:32;;;;;;;0.10;0.10;;;;;;;;;;5092557;28;20612;-69
2022/12/24 01:13:02;;;;;;;0.10;0.10;;;;;;;;;;5096045;28;20651;-70
2022/12/24 01:15:29;;;;;;;0.00;0.00;;;;;;;;;;5094233;28;20663;-69
2022/12/24 01:17:57;;;;;;;0.07;0.07;;;;;;;;;;5092754;28;20612;-70
2022/12/24 01:20:30;;;;;;;0.10;0.10;;;;;;;;;;5094448;28;20701;-69
2022/12/24 01:22:59;;;;;;;0.10;0.10;;;;;;;;;;5081974;28;20629;-69
2022/12/24 01:25:26;;;;;;;0.00;0.00;;;;;;;;;;5094419;27;20663;-69
2022/12/24 01:27:53;;;;;;;0.10;0.10;;;;;;;;;;5091890;28;21231;-69
2022/12/24 01:30:20;;;;;;;0.10;0.10;;;;;;;;;;5092919;28;20620;-69
2022/12/24 01:32:47;;;;;;;0.10;0.10;;;;;;;;;;5087963;28;21224;-69
2022/12/24 01:35:15;;;;;;;0.03;0.03;;;;;;;;;;5080618;28;20651;-69
2022/12/24 01:37:42;;;;;;;0.10;0.10;;;;;;;;;;5079973;28;20623;-69
2022/12/24 01:45:47;;;;;;;0.10;0.10;;;;;;;;;;5091550;28;20640;-69
2022/12/24 01:48:16;;;;;;;0.10;0.10;;;;;;;;;;5091838;28;20706;-69
2022/12/24 01:50:44;;;;;;;0.10;0.10;;;;;;;;;;5092634;28;20656;-70
2022/12/24 01:53:11;;;;;;;0.10;0.10;;;;;;;;;;5094700;28;20678;-70
2022/12/24 01:55:40;;;;;;;0.10;0.10;;;;;;;;;;5092358;28;20786;-69
2022/12/24 01:58:08;;;;;;;0.10;0.10;;;;;;;;;;5090829;28;20599;-69
2022/12/24 02:00:35;;;;;;;0.00;0.00;;;;;;;;;;5090982;28;20769;-70
2022/12/24 02:03:02;;;;;;;0.10;0.10;;;;;;;;;;5095790;28;20617;-69
2022/12/24 02:05:31;;;;;;;0.10;0.10;;;;;;;;;;5093731;28;20746;-69
2022/12/24 02:08:00;;;;;;;0.10;0.10;;;;;;;;;;5094885;28;20631;-69
2022/12/24 02:10:27;;;;;;;0.10;0.10;;;;;;;;;;5093138;28;20695;-69
2022/12/24 02:12:56;;;;;;;0.10;0.10;;;;;;;;;;5092533;28;20641;-70
2022/12/24 02:15:24;;;;;;;0.10;0.10;;;;;;;;;;5090141;28;20654;-70
2022/12/24 02:17:55;;;;;;;0.10;0.10;;;;;;;;;;5092493;28;20652;-70
2022/12/24 02:20:44;;;;;;;0.10;0.10;;;;;;;;;;5091415;28;20638;-71
2022/12/24 02:23:25;;;;;;;0.10;0.10;;;;;;;;;;5090233;28;20619;-70
2022/12/24 02:25:59;;;;;;;0.10;0.10;;;;;;;;;;5092194;28;20679;-70
2022/12/24 02:28:34;;;;;;;0.10;0.10;;;;;;;;;;5093253;28;20632;-69
2022/12/24 02:31:04;;;;;;;0.10;0.10;;;;;;;;;;5090042;28;20623;-70
2022/12/24 02:33:34;;;;;;;0.00;0.00;;;;;;;;;;5097217;27;20639;-69
2022/12/24 02:36:04;;;;;;;0.10;0.10;;;;;;;;;;5089078;28;20655;-70
2022/12/24 02:38:33;;;;;;;0.00;0.00;;;;;;;;;;5091886;28;21250;-70
2022/12/24 02:41:02;;;;;;;0.10;0.10;;;;;;;;;;5074887;28;20611;-70
2022/12/24 02:43:34;;;;;;;0.10;0.10;;;;;;;;;;5092732;28;20702;-70
2022/12/24 02:46:04;;;;;;;0.10;0.10;;;;;;;;;;5091076;28;20777;-71
2022/12/24 02:48:32;;;;;;;0.00;0.00;;;;;;;;;;5091466;28;20618;-71
2022/12/24 02:51:03;;;;;;;0.10;0.10;;;;;;;;;;5092645;28;20653;-71
2022/12/24 02:53:30;;;;;;;0.10;0.10;;;;;;;;;;5092371;28;21237;-71
2022/12/24 02:56:04;;;;;;;0.10;0.10;;;;;;;;;;5093103;28;20900;-72
2022/12/24 02:58:38;;;;;;;0.10;0.10;;;;;;;;;;5093469;28;20616;-71
2022/12/24 03:01:16;;;;;;;0.10;0.10;;;;;;;;;;5092227;28;20634;-71
2022/12/24 03:03:48;;;;;;;0.10;0.10;;;;;;;;;;5091104;28;20615;-72
2022/12/24 03:06:19;;;;;;;0.10;0.10;;;;;;;;;;5091318;28;20750;-71
2022/12/24 03:08:51;;;;;;;0.10;0.10;;;;;;;;;;5089773;28;20620;-71
2022/12/24 03:11:18;;;;;;;0.10;0.10;;;;;;;;;;5092068;28;20680;-71
2022/12/24 03:13:46;;;;;;;0.00;0.00;;;;;;;;;;5089873;28;21205;-71
2022/12/24 03:16:16;;;;;;;0.07;0.07;;;;;;;;;;5091538;28;20688;-71
2022/12/24 03:18:45;;;;;;;0.10;0.10;;;;;;;;;;5089754;28;20656;-71
2022/12/24 03:21:14;;;;;;;0.00;0.00;;;;;;;;;;5090638;28;20727;-71
2022/12/24 03:23:41;;;;;;;0.10;0.10;;;;;;;;;;5089163;28;20694;-71
2022/12/24 03:26:10;;;;;;;0.00;0.00;;;;;;;;;;5090663;28;20737;-71
2022/12/24 03:28:38;;;;;;;0.10;0.10;;;;;;;;;;5093206;28;20726;-71
2022/12/24 03:31:05;;;;;;;0.10;0.10;;;;;;;;;;5094807;28;20715;-70
2022/12/24 03:33:34;;;;;;;0.10;0.10;;;;;;;;;;5091844;28;20703;-71
2022/12/24 03:36:01;;;;;;;0.10;0.10;;;;;;;;;;5092550;28;20755;-70
2022/12/24 03:38:28;;;;;;;0.10;0.10;;;;;;;;;;5089386;28;21283;-71
2022/12/24 03:40:55;;;;;;;0.10;0.10;;;;;;;;;;5088053;28;20713;-71
2022/12/24 03:43:22;;;;;;;0.00;0.00;;;;;;;;;;5093625;28;20611;-71
2022/12/24 03:45:50;;;;;;;0.10;0.10;;;;;;;;;;5090684;28;21306;-71
2022/12/24 03:48:17;;;;;;;0.10;0.10;;;;;;;;;;5091779;28;20711;-72
2022/12/24 03:50:45;;;;;;;0.10;0.10;;;;;;;;;;5090859;28;20651;-71
2022/12/24 03:53:12;;;;;;;0.00;0.00;;;;;;;;;;5092088;28;20723;-71
2022/12/24 03:55:39;;;;;;;0.10;0.10;;;;;;;;;;5090413;28;20762;-71
2022/12/24 03:58:07;;;;;;;0.00;0.00;;;;;;;;;;5094186;28;20632;-71
2022/12/24 04:00:34;;;;;;;0.10;0.10;;;;;;;;;;5092200;28;20627;-71
2022/12/24 04:03:01;;;;;;;0.10;0.10;;;;;;;;;;5095061;28;20616;-71
2022/12/24 04:05:28;;;;;;;0.10;0.10;;;;;;;;;;5090739;28;20721;-71
2022/12/24 04:07:56;;;;;;;0.10;0.10;;;;;;;;;;5090253;28;20635;-71
2022/12/24 04:10:23;;;;;;;0.10;0.10;;;;;;;;;;5094140;28;20695;-71
2022/12/24 04:12:50;;;;;;;0.10;0.10;;;;;;;;;;5093533;28;20714;-71
2022/12/24 04:15:17;;;;;;;0.00;0.00;;;;;;;;;;5096401;28;21114;-71
2022/12/24 04:17:44;;;;;;;0.10;0.10;;;;;;;;;;5096471;28;20725;-71
2022/12/24 04:20:12;;;;;;;0.10;0.10;;;;;;;;;;5094016;28;20613;-71
2022/12/24 04:22:40;;;;;;;0.10;0.10;;;;;;;;;;5091618;28;20733;-71
2022/12/24 04:25:10;;;;;;;0.10;0.10;;;;;;;;;;5092844;28;20659;-71
2022/12/24 04:27:37;;;;;;;0.10;0.10;;;;;;;;;;5095001;28;20670;-71
2022/12/24 04:30:05;;;;;;;0.00;0.00;;;;;;;;;;5092849;28;20647;-71
2022/12/24 04:32:32;;;;;;;0.10;0.10;;;;;;;;;;5093783;28;20624;-71
2022/12/24 04:34:59;;;;;;;0.00;0.00;;;;;;;;;;5095705;28;20672;-70
2022/12/24 04:37:27;;;;;;;0.00;0.00;;;;;;;;;;5093017;28;20654;-71
2022/12/24 04:39:54;;;;;;;0.10;0.10;;;;;;;;;;5095893;28;20734;-71
2022/12/24 04:42:23;;;;;;;0.10;0.10;;;;;;;;;;5093153;28;20623;-71
2022/12/24 04:44:50;;;;;;;0.10;0.10;;;;;;;;;;5098495;27;20655;-71
2022/12/24 04:47:18;;;;;;;0.10;0.10;;;;;;;;;;5094936;28;20654;-71
2022/12/24 04:49:45;;;;;;;0.00;0.00;;;;;;;;;;5089680;28;20634;-71
2022/12/24 04:52:12;;;;;;;0.10;0.10;;;;;;;;;;5092895;28;20651;-70
2022/12/24 04:54:39;;;;;;;0.10;0.10;;;;;;;;;;5076974;28;20814;-71
2022/12/24 04:57:06;;;;;;;0.00;0.00;;;;;;;;;;5094680;28;20648;-70
2022/12/24 04:59:35;;;;;;;0.03;0.03;;;;;;;;;;5095028;28;20622;-71
2022/12/24 05:02:02;;;;;;;0.10;0.10;;;;;;;;;;5093899;28;21381;-71
2022/12/24 05:04:30;;;;;;;0.10;0.10;;;;;;;;;;5093815;28;20647;-70
2022/12/24 05:06:57;;;;;;;0.10;0.10;;;;;;;;;;5091396;28;20695;-71
2022/12/24 05:09:25;;;;;;;0.10;0.10;;;;;;;;;;5093516;28;20648;-71
2022/12/24 05:11:52;;;;;;;0.10;0.10;;;;;;;;;;5090150;28;20662;-71
2022/12/24 05:14:19;;;;;;;0.00;0.00;;;;;;;;;;5091406;28;21048;-71
2022/12/24 05:16:47;;;;;;;0.10;0.10;;;;;;;;;;5092774;28;20678;-71
2022/12/24 05:19:15;;;;;;;0.10;0.10;;;;;;;;;;5090970;28;20731;-70
2022/12/24 05:21:42;;;;;;;0.10;0.10;;;;;;;;;;5093406;28;20699;-71
2022/12/24 05:26:56;;;;;;;0.10;0.10;;;;;;;;;;5090586;28;20647;-71
2022/12/24 05:29:23;;;;;;;0.10;0.10;;;;;;;;;;5091495;28;21297;-71
2022/12/24 05:31:52;;;;;;;0.10;0.10;;;;;;;;;;5091186;28;20696;-71
2022/12/24 05:34:19;;;;;;;0.00;0.00;;;;;;;;;;5094502;28;20689;-70
2022/12/24 05:36:46;;;;;;;0.00;0.00;;;;;;;;;;5093567;28;21124;-71
2022/12/24 05:39:15;;;;;;;0.10;0.10;;;;;;;;;;5094130;28;20715;-71
2022/12/24 05:41:42;;;;;;;0.10;0.10;;;;;;;;;;5093316;28;20614;-71
2022/12/24 05:44:09;;;;;;;0.03;0.03;;;;;;;;;;5091692;28;20655;-71
2022/12/24 05:46:36;;;;;;;0.10;0.10;;;;;;;;;;5094852;28;20634;-72
2022/12/24 05:49:04;;;;;;;0.10;0.10;;;;;;;;;;5091812;28;20624;-71
2022/12/24 05:51:31;;;;;;;0.10;0.10;;;;;;;;;;5093279;28;20697;-72
2022/12/24 05:53:58;;;;;;;0.10;0.10;;;;;;;;;;5093943;28;20639;-72
2022/12/24 05:56:26;;;;;;;0.10;0.10;;;;;;;;;;5094041;28;20755;-72
2022/12/24 05:58:54;;;;;;;0.10;0.10;;;;;;;;;;5093463;28;20715;-72
2022/12/24 06:01:21;;;;;;;0.10;0.10;;;;;;;;;;5092755;28;20626;-71
2022/12/24 06:03:49;;;;;;;0.00;0.00;;;;;;;;;;5092824;28;20698;-71
2022/12/24 06:06:19;;;;;;;0.10;0.10;;;;;;;;;;5092127;28;20651;-72
2022/12/24 06:08:47;;;;;;;0.10;0.10;;;;;;;;;;5095579;28;20624;-72
2022/12/24 06:11:15;;;;;;;0.10;0.10;;;;;;;;;;5092811;28;20646;-71
2022/12/24 06:13:42;;;;;;;0.10;0.10;;;;;;;;;;5093064;28;20695;-71
2022/12/24 06:16:14;;;;;;;0.10;0.10;;;;;;;;;;5095095;27;20672;-71
2022/12/24 06:18:41;;;;;;;0.10;0.10;;;;;;;;;;5095313;28;20717;-70
2022/12/24 06:21:08;;;;;;;0.10;0.10;;;;;;;;;;5091896;28;20714;-70
2022/12/24 06:23:38;;;;;;;0.10;0.10;;;;;;;;;;5094002;28;20706;-69
2022/12/24 06:26:06;;;;;;;0.10;0.10;;;;;;;;;;5094083;28;20693;-69
2022/12/24 06:28:34;;;;;;;0.10;0.10;;;;;;;;;;5091414;28;21100;-69
2022/12/24 06:31:03;;;;;;;0.10;0.10;;;;;;;;;;5107038;27;20612;-69
2022/12/24 06:33:30;;;;;;;0.10;0.10;;;;;;;;;;5091860;28;20670;-69
2022/12/24 06:35:57;;;;;;;0.10;0.10;;;;;;;;;;5092137;28;20672;-69
2022/12/24 06:38:24;;;;;;;0.00;0.00;;;;;;;;;;5093556;28;20604;-69
2022/12/24 06:40:54;;;;;;;0.10;0.10;;;;;;;;;;5093012;28;20650;-70
2022/12/24 06:43:21;;;;;;;0.10;0.10;;;;;;;;;;5093781;28;20687;-69
2022/12/24 06:45:49;;;;;;;0.10;0.10;;;;;;;;;;5088782;28;20663;-69
2022/12/24 06:48:16;;;;;;;0.10;0.10;;;;;;;;;;5092891;28;20608;-69
2022/12/24 06:50:44;;;;;;;0.10;0.10;;;;;;;;;;5092815;28;20629;-70
2022/12/24 06:53:11;;;;;;;0.00;0.00;;;;;;;;;;5092595;28;20627;-69
2022/12/24 06:55:38;;;;;;;0.10;0.10;;;;;;;;;;5093821;28;20659;-70
2022/12/24 06:58:07;;;;;;;0.10;0.10;;;;;;;;;;5091563;28;20718;-70
2022/12/24 07:00:34;;;;;;;0.00;0.00;;;;;;;;;;5095658;28;20691;-70
2022/12/24 07:03:01;;;;;;;0.00;0.00;;;;;;;;;;5077720;28;20719;-70
2022/12/24 07:05:28;;;;;;;0.03;0.03;;;;;;;;;;5090976;28;20647;-69
2022/12/24 07:07:55;;;;;;;0.00;0.00;;;;;;;;;;5090195;28;20722;-70
2022/12/24 07:10:23;;;;;;;0.10;0.10;;;;;;;;;;5093985;28;20718;-69
2022/12/24 07:12:50;;;;;;;0.00;0.00;;;;;;;;;;5091635;28;20730;-70
2022/12/24 07:15:19;;;;;;;0.10;0.10;;;;;;;;;;5092380;28;20766;-70
2022/12/24 07:17:47;;;;;;;0.10;0.10;;;;;;;;;;5090218;28;20612;-69
2022/12/24 07:20:14;;;;;;;0.10;0.10;;;;;;;;;;5093039;28;20628;-69
2022/12/24 07:22:41;;;;;;;0.10;0.10;;;;;;;;;;5094477;28;20668;-69
2022/12/24 07:25:09;;;;;;;0.07;0.07;;;;;;;;;;5077574;28;20742;-70
2022/12/24 07:27:37;;;;;;;0.00;0.00;;;;;;;;;;5091366;28;20607;-70
2022/12/24 07:30:05;;;;;;;0.00;0.00;;;;;;;;;;5090322;28;20720;-70
2022/12/24 07:32:33;;;;;;;0.00;0.00;;;;;;;;;;5089327;28;20631;-70
2022/12/24 07:35:00;;;;;;;0.00;0.00;;;;;;;;;;5089417;28;20667;-70
2022/12/24 07:37:28;;;;;;;0.10;0.10;;;;;;;;;;5074126;28;20703;-70
2022/12/24 07:39:55;;;;;;;0.10;0.10;;;;;;;;;;5093912;28;20606;-66
2022/12/24 07:42:22;;;;;;;0.10;0.10;;;;;;;;;;5091417;28;20608;-66
2022/12/24 07:44:50;;;;;;;0.10;0.10;;;;;;;;;;5091107;28;20634;-66
2022/12/24 07:47:17;;;;;;;0.00;0.00;;;;;;;;;;5082276;28;20630;-65
2022/12/24 07:49:45;;;;;;;0.10;0.10;;;;;;;;;;5093179;28;20638;-65
2022/12/24 07:52:12;;;;;;;0.10;0.10;;;;;;;;;;5095133;28;20626;-66
2022/12/24 07:54:40;;;;;;;0.07;0.07;;;;;;;;;;5096618;28;21055;-66
2022/12/24 07:57:07;;;;;;;0.00;0.00;;;;;;;;;;5095062;28;20743;-68
2022/12/24 07:59:34;;;;;;;0.10;0.10;;;;;;;;;;5100003;28;20607;-68
2022/12/24 08:02:01;;;;;;;0.00;0.00;;;;;;;;;;5096474;28;20722;-68
2022/12/24 08:04:32;;;;;;;0.10;0.10;;;;;;;;;;5112528;27;20684;-68
2022/12/24 08:07:00;;;;;;;0.10;0.10;;;;;;;;;;5092664;28;20701;-68
2022/12/24 08:09:27;;;;;;;0.10;0.10;;;;;;;;;;5097675;28;20696;-68
2022/12/24 08:11:55;;;;;;;0.10;0.10;;;;;;;;;;5096200;28;20602;-68
2022/12/24 08:14:22;;;;;;;0.10;0.10;;;;;;;;;;5096199;28;20606;-68
2022/12/24 08:16:49;;;;;;;0.10;0.10;;;;;;;;;;5093696;28;20754;-68
2022/12/24 08:19:16;;;;;;;0.00;0.00;;;;;;;;;;5093969;28;20628;-69
2022/12/24 08:21:43;;;;;;;0.10;0.10;;;;;;;;;;5092978;28;20670;-68
2022/12/24 08:24:12;;;;;;;0.00;0.00;;;;;;;;;;5095927;28;20690;-68
2022/12/24 08:26:40;;;;;;;0.00;0.00;;;;;;;;;;5094677;28;20659;-68
2022/12/24 08:29:07;;;;;;;0.00;0.00;;;;;;;;;;5093810;28;20622;-69
2022/12/24 08:31:35;;;;;;;0.03;0.03;;;;;;;;;;5095552;28;20620;-69
2022/12/24 08:34:03;;;;;;;0.00;0.00;;;;;;;;;;5095553;28;20614;-69
2022/12/24 08:36:30;;;;;;;0.10;0.10;;;;;;;;;;5112272;27;20773;-69
2022/12/24 08:38:57;;;;;;;0.10;0.10;;;;;;;;;;5095659;28;20727;-69
2022/12/24 08:41:26;;;;;;;0.00;0.00;;;;;;;;;;5095062;28;20604;-68
2022/12/24 08:43:53;;;;;;;0.10;0.10;;;;;;;;;;5093807;28;20641;-68
2022/12/24 08:46:20;;;;;;;0.00;0.00;;;;;;;;;;5090449;28;20735;-68
2022/12/24 08:48:47;;;;;;;0.10;0.10;;;;;;;;;;5098042;28;20619;-69
2022/12/24 08:51:14;;;;;;;0.10;0.10;;;;;;;;;;5095829;28;20613;-68
2022/12/24 08:53:42;;;;;;;0.10;0.10;;;;;;;;;;5097406;27;20623;-69
2022/12/24 08:56:10;;;;;;;0.10;0.10;;;;;;;;;;5092434;28;20663;-68
2022/12/24 08:58:39;;;;;;;0.10;0.10;;;;;;;;;;5081679;28;20619;-69
2022/12/24 09:01:11;;;;;;;0.10;0.10;;;;;;;;;;5092987;28;20648;-69
2022/12/24 09:03:38;;;;;;;0.10;0.10;;;;;;;;;;5090582;28;20656;-68
2022/12/24 09:06:05;;;;;;;0.07;0.07;;;;;;;;;;5093520;28;20652;-68
2022/12/24 09:08:32;;;;;;;0.07;0.07;;;;;;;;;;5093759;28;20635;-68
2022/12/24 09:11:03;;;;;;;0.00;0.00;;;;;;;;;;5096925;28;20614;-68
2022/12/24 09:13:31;;;;;;;0.10;0.10;;;;;;;;;;5097473;28;20633;-69
2022/12/24 09:16:00;;;;;;;0.10;0.10;;;;;;;;;;5093054;28;20783;-69
2022/12/24 09:18:31;;;;;;;0.10;0.10;;;;;;;;;;5088875;28;20623;-69
2022/12/24 09:21:02;;;;;;;0.10;0.10;;;;;;;;;;5089719;28;20630;-69
2022/12/24 09:23:30;;;;;;;0.10;0.10;;;;;;;;;;5079039;28;20633;-69
2022/12/24 09:25:57;;;;;;;0.10;0.10;;;;;;;;;;5091554;28;20648;-69
2022/12/24 09:28:24;;;;;;;0.10;0.10;;;;;;;;;;5093730;28;20623;-69
2022/12/24 09:30:56;;;;;;;0.00;0.00;;;;;;;;;;5091380;28;20620;-68
2022/12/24 09:33:25;;;;;;;0.00;0.00;;;;;;;;;;5089486;28;20651;-69
2022/12/24 09:35:53;;;;;;;0.00;0.00;;;;;;;;;;5077454;28;20691;-68
2022/12/24 09:38:20;;;;;;;0.00;0.00;;;;;;;;;;5088706;28;20619;-69
2022/12/24 09:40:48;;;;;;;0.03;0.03;;;;;;;;;;5107444;27;20627;-68
2022/12/24 09:43:16;;;;;;;0.10;0.10;;;;;;;;;;5089756;28;20735;-69
2022/12/24 09:45:46;;;;;;;0.00;0.00;;;;;;;;;;5089369;28;21292;-69
2022/12/24 09:48:15;;;;;;;0.10;0.10;;;;;;;;;;5089764;28;20643;-69
2022/12/24 09:50:47;;;;;;;0.10;0.10;;;;;;;;;;5089064;28;20659;-68
2022/12/24 09:53:18;;;;;;;0.10;0.10;;;;;;;;;;5089708;28;20726;-68
2022/12/24 09:55:47;;;;;;;0.10;0.10;;;;;;;;;;5091081;28;20659;-68
2022/12/24 09:58:19;;;;;;;0.10;0.10;;;;;;;;;;5089419;28;20620;-69
2022/12/24 10:00:47;;;;;;;0.00;0.00;;;;;;;;;;5085999;28;20678;-68
2022/12/24 10:03:15;;;;;;;0.00;0.00;;;;;;;;;;5034931;28;20723;-68
2022/12/24 10:05:47;;;;;;;0.10;0.10;;;;;;;;;;5090985;28;20762;-69
2022/12/24 10:08:19;;;;;;;0.00;0.00;;;;;;;;;;5088765;28;20635;-68
2022/12/24 10:10:49;;;;;;;0.00;0.00;;;;;;;;;;5087393;28;20720;-69
2022/12/24 10:13:23;;;;;;;0.00;0.00;;;;;;;;;;5091467;28;20708;-68
2022/12/24 10:15:55;;;;;;;0.00;0.00;;;;;;;;;;5090647;28;20671;-69
2022/12/24 10:18:27;;;;;;;0.00;0.00;;;;;;;;;;5089148;28;20631;-68
2022/12/24 10:20:59;;;;;;;0.00;0.00;;;;;;;;;;5094245;28;20611;-69
2022/12/24 10:23:31;;;;;;;0.07;0.07;;;;;;;;;;5094212;28;20695;-68
2022/12/24 10:26:03;;;;;;;0.03;0.03;;;;;;;;;;5088017;28;20635;-68
2022/12/24 10:28:33;;;;;;;0.00;0.00;;;;;;;;;;5087568;28;20639;-68
2022/12/24 10:31:02;;;;;;;0.00;0.00;;;;;;;;;;5090809;28;20608;-68
2022/12/24 10:33:31;;;;;;;0.00;0.00;;;;;;;;;;5088826;28;20631;-68
2022/12/24 10:36:00;;;;;;;0.10;0.10;;;;;;;;;;5090908;28;21140;-69
2022/12/24 10:38:28;;;;;;;0.00;0.00;;;;;;;;;;5091694;28;20699;-69
2022/12/24 10:40:56;;;;;;;0.00;0.00;;;;;;;;;;5093865;28;20709;-69
2022/12/24 10:43:24;;;;;;;0.00;0.00;;;;;;;;;;5075684;28;20639;-67
2022/12/24 10:45:56;;;;;;;0.10;0.10;;;;;;;;;;5083255;28;20657;-68
2022/12/24 10:48:24;;;;;;;0.10;0.10;;;;;;;;;;5088411;28;20633;-67
2022/12/24 10:50:53;;;;;;;0.00;0.00;;;;;;;;;;5089621;28;20642;-68
2022/12/24 10:53:25;;;;;;;0.10;0.10;;;;;;;;;;5088252;28;20624;-68
2022/12/24 10:56:01;;;;;;;0.00;0.00;;;;;;;;;;5082907;28;20651;-68
2022/12/24 10:58:28;;;;;;;0.10;0.10;;;;;;;;;;5085329;28;20715;-68
2022/12/24 11:00:56;;;;;;;0.00;0.00;;;;;;;;;;5093898;28;20726;-69
2022/12/24 11:03:24;;;;;;;0.10;0.10;;;;;;;;;;5089474;28;20624;-68
2022/12/24 11:06:00;;;;;;;0.07;0.07;;;;;;;;;;5083776;28;20668;-68
2022/12/24 11:08:28;;;;;;;0.00;0.00;;;;;;;;;;5090645;28;20615;-68
2022/12/24 11:10:56;;;;;;;0.10;0.10;;;;;;;;;;5088023;28;20707;-67
2022/12/24 11:13:25;;;;;;;0.00;0.00;;;;;;;;;;5090343;28;20730;-68
2022/12/24 11:15:59;;;;;;;0.10;0.10;;;;;;;;;;5086042;28;20211;-68
2022/12/24 11:18:26;;;;;;;0.00;0.00;;;;;;;;;;5106611;28;20209;-67
2022/12/24 11:20:58;;;;;;;0.10;0.10;;;;;;;;;;5088212;28;20300;-68
2022/12/24 11:23:25;;;;;;;0.10;0.10;;;;;;;;;;5093622;28;20334;-68
2022/12/24 11:25:54;;;;;;;0.10;0.10;;;;;;;;;;5090000;28;20754;-68
2022/12/24 11:28:24;;;;;;;0.00;0.00;;;;;;;;;;5087444;28;20637;-68
2022/12/24 11:30:59;;;;;;;0.00;0.00;;;;;;;;;;5080980;28;20189;-68
2022/12/24 11:33:27;;;;;;;0.00;0.00;;;;;;;;;;5079422;28;20254;-68
2022/12/24 11:35:56;;;;;;;0.10;0.10;;;;;;;;;;5086364;28;20658;-68
2022/12/24 11:38:25;;;;;;;0.10;0.10;;;;;;;;;;5081219;28;20202;-68
2022/12/24 11:40:59;;;;;;;0.00;0.00;;;;;;;;;;5084412;28;20212;-68
2022/12/24 11:43:43;;;;;;;0.03;0.03;;;;;;;;;;5088954;28;20622;-68
2022/12/24 11:46:17;;;;;;;0.00;0.00;;;;;;;;;;5088958;28;20251;-68
2022/12/24 11:48:45;;;;;;;0.10;0.10;;;;;;;;;;5085607;28;20717;-69
2022/12/24 11:51:23;;;;;;;0.10;0.10;;;;;;;;;;5086585;28;20669;-68
2022/12/24 11:53:52;;;;;;;0.00;0.00;;;;;;;;;;5087211;28;20198;-68
2022/12/24 11:56:28;;;;;;;0.00;0.00;;;;;;;;;;5086889;28;20672;-68
2022/12/24 11:58:57;;;;;;;0.10;0.10;;;;;;;;;;5084835;28;20209;-68
2022/12/24 12:01:26;;;;;;;0.10;0.10;;;;;;;;;;5086995;28;20361;-68
2022/12/24 12:03:55;;;;;;;0.00;0.00;;;;;;;;;;5085551;28;20639;-68
2022/12/24 12:06:28;;;;;;;0.03;0.03;;;;;;;;;;5091028;28;20657;-67
2022/12/24 12:08:57;;;;;;;0.10;0.10;;;;;;;;;;5087390;28;20202;-67
2022/12/24 12:11:26;;;;;;;0.10;0.10;;;;;;;;;;5090329;28;20610;-68
2022/12/24 12:13:55;;;;;;;0.10;0.10;;;;;;;;;;5086324;28;20240;-68
2022/12/24 12:16:25;;;;;;;0.10;0.10;;;;;;;;;;5087953;28;20289;-68
2022/12/24 12:18:55;;;;;;;0.10;0.10;;;;;;;;;;5084849;28;20631;-68
2022/12/24 12:21:25;;;;;;;0.10;0.10;;;;;;;;;;5087201;28;20600;-67
2022/12/24 12:23:53;;;;;;;0.00;0.00;;;;;;;;;;5103631;28;20282;-68
2022/12/24 12:26:22;;;;;;;0.10;0.10;;;;;;;;;;5104690;28;20735;-67
2022/12/24 12:28:55;;;;;;;0.00;0.00;;;;;;;;;;5091495;28;20615;-68
2022/12/24 12:31:24;;;;;;;0.10;0.10;;;;;;;;;;5079070;28;20194;-68
2022/12/24 12:33:54;;;;;;;0.10;0.10;;;;;;;;;;5094629;28;20202;-67
2022/12/24 12:36:25;;;;;;;0.00;0.00;;;;;;;;;;5094683;28;20241;-67
2022/12/24 12:38:53;;;;;;;0.00;0.00;;;;;;;;;;5092258;28;20208;-67
2022/12/24 12:41:31;;;;;;;0.00;0.00;;;;;;;;;;5093061;28;20611;-67
2022/12/24 12:44:10;;;;;;;0.00;0.00;;;;;;;;;;5088253;28;20201;-67
2022/12/24 12:46:40;;;;;;;0.00;0.00;;;;;;;;;;5087993;28;21054;-68
2022/12/24 12:49:15;;;;;;;0.00;0.00;;;;;;;;;;5091172;28;20194;-68
2022/12/24 12:51:45;;;;;;;0.03;0.03;;;;;;;;;;5091888;28;20611;-67
2022/12/24 12:54:19;;;;;;;0.10;0.10;;;;;;;;;;5087355;28;20233;-68
2022/12/24 12:56:48;;;;;;;0.00;0.00;;;;;;;;;;5090069;28;20217;-68
2022/12/24 12:59:20;;;;;;;0.10;0.10;;;;;;;;;;5091113;28;20632;-68
2022/12/24 13:01:51;;;;;;;0.00;0.00;;;;;;;;;;5096317;28;20678;-66
2022/12/24 13:04:30;;;;;;;0.00;0.00;;;;;;;;;;5088265;28;20622;-67
2022/12/24 13:07:05;;;;;;;0.00;0.00;;;;;;;;;;5098405;27;20233;-67
2022/12/24 13:10:02;;;;;;;0.10;0.10;;;;;;;;;;5091213;28;20637;-67
2022/12/24 13:12:37;;;;;;;0.00;0.00;;;;;;;;;;5096124;28;20703;-67
2022/12/24 13:15:12;;;;;;;0.00;0.00;;;;;;;;;;5092295;28;20654;-67
2022/12/24 13:17:54;;;;;;;0.10;0.10;;;;;;;;;;5094093;28;20654;-67
2022/12/24 13:20:24;;;;;;;0.00;0.00;;;;;;;;;;5056937;28;20722;-68
2022/12/24 13:22:55;;;;;;;0.00;0.00;;;;;;;;;;5091459;28;20642;-68
2022/12/24 13:25:24;;;;;;;0.00;0.00;;;;;;;;;;5087410;28;20649;-67
2022/12/24 13:27:51;;;;;;;0.00;0.00;;;;;;;;;;5095369;28;20197;-67
2022/12/24 13:30:40;;;;;;;0.00;0.00;;;;;;;;;;5095080;28;20649;-67
2022/12/24 13:33:10;;;;;;;0.00;0.00;;;;;;;;;;5093651;28;20608;-67
2022/12/24 13:35:38;;;;;;;0.00;0.00;;;;;;;;;;5091769;28;20759;-67
2022/12/24 13:38:20;;;;;;;0.03;0.03;;;;;;;;;;5094981;28;20678;-67
2022/12/24 13:40:47;;;;;;;0.00;0.00;;;;;;;;;;5080506;28;20634;-67
2022/12/24 13:43:14;;;;;;;0.00;0.00;;;;;;;;;;5095247;28;20702;-67
2022/12/24 13:45:43;;;;;;;0.00;0.00;;;;;;;;;;5092316;28;20759;-67
2022/12/24 13:48:18;;;;;;;0.00;0.00;;;;;;;;;;5091818;28;20613;-67
2022/12/24 13:50:47;;;;;;;0.00;0.00;;;;;;;;;;5082379;28;20619;-68
2022/12/24 13:53:23;;;;;;;0.10;0.10;;;;;;;;;;5084415;28;20626;-67
2022/12/24 13:55:51;;;;;;;0.00;0.00;;;;;;;;;;5081700;28;20643;-67
2022/12/24 13:58:20;;;;;;;0.00;0.00;;;;;;;;;;5090154;28;20773;-68
2022/12/24 14:00:55;;;;;;;0.00;0.00;;;;;;;;;;5089176;28;20302;-67
2022/12/24 14:03:28;;;;;;;0.00;0.00;;;;;;;;;;5089604;28;20607;-67
2022/12/24 14:05:57;;;;;;;0.07;0.07;;;;;;;;;;5089971;28;20749;-67
2022/12/24 14:08:30;;;;;;;0.10;0.10;;;;;;;;;;5090024;28;20725;-67
2022/12/24 14:11:07;;;;;;;0.00;0.00;;;;;;;;;;5093741;28;20647;-66
2022/12/24 14:13:53;;;;;;;0.07;0.07;;;;;;;;;;5091037;28;20197;-65
2022/12/24 14:16:23;;;;;;;0.10;0.10;;;;;;;;;;5087324;28;20686;-68
2022/12/24 14:18:51;;;;;;;0.00;0.00;;;;;;;;;;5088251;28;20655;-67
2022/12/24 14:21:19;;;;;;;0.00;0.00;;;;;;;;;;5092477;28;20704;-67
2022/12/24 14:23:52;;;;;;;0.00;0.00;;;;;;;;;;5092461;28;20638;-67
2022/12/24 14:26:20;;;;;;;0.00;0.00;;;;;;;;;;5093031;28;20642;-67
2022/12/24 14:28:51;;;;;;;0.03;0.03;;;;;;;;;;5094773;28;20610;-67
2022/12/24 14:31:19;;;;;;;0.00;0.00;;;;;;;;;;5079093;28;20619;-68
2022/12/24 14:33:47;;;;;;;0.10;0.10;;;;;;;;;;5077214;28;20692;-67
2022/12/24 14:36:16;;;;;;;0.00;0.00;;;;;;;;;;5089878;28;20632;-67
2022/12/24 14:38:44;;;;;;;0.00;0.00;;;;;;;;;;5088216;28;20647;-67
2022/12/24 14:41:18;;;;;;;0.00;0.00;;;;;;;;;;5088765;28;20617;-67
2022/12/24 14:43:52;;;;;;;0.00;0.00;;;;;;;;;;5089091;28;20201;-68
2022/12/24 14:46:24;;;;;;;0.00;0.00;;;;;;;;;;5087465;28;20667;-67
2022/12/24 14:48:54;;;;;;;0.00;0.00;;;;;;;;;;5088708;28;20699;-68
2022/12/24 14:51:25;;;;;;;0.10;0.10;;;;;;;;;;5088764;28;20622;-69
2022/12/24 14:54:03;;;;;;;0.00;0.00;;;;;;;;;;5085101;28;20632;-68
2022/12/24 14:56:30;;;;;;;0.00;0.00;;;;;;;;;;5089285;28;20685;-70
2022/12/24 14:59:03;;;;;;;0.03;0.03;;;;;;;;;;5091183;28;20655;-70
2022/12/24 15:01:32;;;;;;;0.07;0.07;;;;;;;;;;5093584;28;21255;-69
2022/12/24 15:04:02;;;;;;;0.10;0.10;;;;;;;;;;5096111;28;20642;-69